createdAt,value
2022-07-25T00:11:54.489Z,39.08
2022-07-25T00:26:56.714Z,39.34
2022-07-25T00:41:59.689Z,37.95
2022-07-25T00:57:02.172Z,38
2022-07-25T01:12:04.641Z,38.37
2022-07-25T01:27:07.799Z,36.92
2022-07-25T01:42:19.536Z,36.2
2022-07-25T01:57:21.988Z,35.51
2022-07-25T02:12:27.599Z,34.45
2022-07-25T02:27:29.914Z,33.65
2022-07-25T02:42:32.341Z,33.2
2022-07-25T02:57:34.642Z,32.34
2022-07-25T03:12:37.105Z,31.81
2022-07-25T03:27:39.471Z,30.92
2022-07-25T03:42:41.996Z,29.92
2022-07-25T03:57:44.271Z,29.16
2022-07-25T04:12:46.555Z,28.54
2022-07-25T04:27:48.844Z,27.99
2022-07-25T04:42:51.108Z,28.21
2022-07-25T04:57:53.429Z,27.54
2022-07-25T05:12:55.730Z,26.9
2022-07-25T05:27:58.191Z,26.45
2022-07-25T05:43:03.282Z,25.99
2022-07-25T05:58:06.172Z,25.36
2022-07-25T06:13:08.451Z,24.85
2022-07-25T06:28:12.666Z,24.96
2022-07-25T06:43:20.539Z,24.26
2022-07-25T06:58:24.050Z,24.31
2022-07-25T07:13:28.497Z,24.16
2022-07-25T07:28:30.878Z,23.62
2022-07-25T07:43:33.166Z,23.38
2022-07-25T07:58:35.624Z,23.33
2022-07-25T08:13:37.923Z,22.79
2022-07-25T08:28:40.240Z,22.76
2022-07-25T08:43:42.697Z,22.52
2022-07-25T08:58:44.995Z,22.42
2022-07-25T09:13:47.292Z,21.84
2022-07-25T09:28:49.786Z,21.26
2022-07-25T09:43:52.142Z,20.91
2022-07-25T09:58:54.436Z,21.02
2022-07-25T10:13:56.747Z,21.44
2022-07-25T10:28:59.045Z,20.72
2022-07-25T10:44:01.420Z,21.47
2022-07-25T10:59:03.902Z,20.98
2022-07-25T11:14:06.415Z,20.26
2022-07-25T11:29:09.344Z,20.85
2022-07-25T11:44:11.944Z,20.41
2022-07-25T11:59:14.293Z,20.03
2022-07-25T12:14:16.599Z,20.14
2022-07-25T12:29:18.877Z,19.95
2022-07-25T12:44:21.312Z,19.57
2022-07-25T12:59:23.601Z,19.75
2022-07-25T13:14:26.468Z,19.29
2022-07-25T13:29:28.871Z,20.12
2022-07-25T13:44:31.844Z,20.39
2022-07-25T13:59:34.141Z,20.64
2022-07-25T14:14:36.623Z,21.62
2022-07-25T14:29:38.941Z,21.75
2022-07-25T14:44:41.329Z,22.41
2022-07-25T14:59:43.649Z,22.36
2022-07-25T15:14:46.639Z,23.57
2022-07-25T15:29:48.961Z,25.69
2022-07-25T15:45:03.856Z,27.24
2022-07-25T16:00:17.843Z,27.62
2022-07-25T16:15:20.137Z,28.36
2022-07-25T16:30:22.547Z,28.57
2022-07-25T16:45:24.824Z,29.6
2022-07-25T17:00:27.127Z,30.05
2022-07-25T17:15:29.456Z,30.71
2022-07-25T17:30:31.854Z,31.53
2022-07-25T17:45:34.184Z,31.91
2022-07-25T18:00:36.462Z,32.55
2022-07-25T18:15:38.883Z,33.07
2022-07-25T18:30:41.264Z,33.84
2022-07-25T18:45:43.751Z,34.26
2022-07-25T19:00:47.138Z,34.64
2022-07-25T19:15:49.569Z,35.2
2022-07-25T19:30:51.962Z,35.61
2022-07-25T19:45:54.450Z,35.73
2022-07-25T20:00:56.865Z,36.16
2022-07-25T20:15:59.180Z,36.91
2022-07-25T20:31:01.617Z,38.44
2022-07-25T20:46:08.848Z,38.43
2022-07-25T21:01:11.761Z,39.21
2022-07-25T21:16:14.061Z,40.04
2022-07-25T21:31:16.412Z,39.97
2022-07-25T21:46:18.826Z,40.57
2022-07-25T22:01:21.659Z,40.19
2022-07-25T22:16:24.120Z,40.61
2022-07-25T22:31:26.491Z,40.31
2022-07-25T22:46:29.032Z,41.31
2022-07-25T23:01:31.483Z,40.81
2022-07-25T23:16:33.864Z,40.38
2022-07-25T23:31:36.269Z,39.94
2022-07-25T23:46:38.691Z,40.07
